sensor_id;sensor_type;location;lat;lon;timestamp;pressure;altitude;pressure_sealevel;temperature;humidity
29169;BME280;16219;42.864;23.360;2023-04-25T00:00:22;95078.34;;;12.21;100.00
29169;BME280;16219;42.864;23.360;2023-04-25T00:02:49;95077.28;;;12.10;100.00
29169;BME280;16219;42.864;23.360;2023-04-25T00:05:17;95068.81;;;12.05;100.00
29169;BME280;16219;42.864;23.360;2023-04-25T00:07:45;95068.63;;;11.97;100.00
29169;BME280;16219;42.864;23.360;2023-04-25T00:10:12;95061.81;;;11.96;100.00
29169;BME280;16219;42.864;23.360;2023-04-25T00:12:40;95053.41;;;12.07;100.00
29169;BME280;16219;42.864;23.360;2023-04-25T00:15:07;95052.47;;;12.15;100.00
29169;BME280;16219;42.864;23.360;2023-04-25T00:17:35;95039.28;;;12.31;100.00
29169;BME280;16219;42.864;23.360;2023-04-25T00:20:04;95030.75;;;12.21;100.00
29169;BME280;16219;42.864;23.360;2023-04-25T00:22:36;95036.78;;;12.22;100.00
29169;BME280;16219;42.864;23.360;2023-04-25T00:25:04;95040.97;;;12.07;100.00
29169;BME280;16219;42.864;23.360;2023-04-25T00:27:31;95043.44;;;11.88;100.00
29169;BME280;16219;42.864;23.360;2023-04-25T00:29:59;95037.81;;;11.89;100.00
29169;BME280;16219;42.864;23.360;2023-04-25T00:32:26;95044.00;;;11.81;100.00
29169;BME280;16219;42.864;23.360;2023-04-25T00:34:53;95038.16;;;11.75;100.00
29169;BME280;16219;42.864;23.360;2023-04-25T00:37:21;95043.56;;;11.79;100.00
29169;BME280;16219;42.864;23.360;2023-04-25T00:39:50;95040.03;;;11.87;100.00
29169;BME280;16219;42.864;23.360;2023-04-25T00:42:19;95041.09;;;11.98;100.00
29169;BME280;16219;42.864;23.360;2023-04-25T00:44:47;95040.91;;;11.91;100.00
29169;BME280;16219;42.864;23.360;2023-04-25T00:47:15;95040.00;;;11.99;100.00
29169;BME280;16219;42.864;23.360;2023-04-25T00:49:42;95045.38;;;12.03;100.00
29169;BME280;16219;42.864;23.360;2023-04-25T00:52:09;95038.16;;;11.88;100.00
29169;BME280;16219;42.864;23.360;2023-04-25T00:54:36;95052.19;;;12.04;100.00
29169;BME280;16219;42.864;23.360;2023-04-25T00:57:05;95043.41;;;12.00;100.00
29169;BME280;16219;42.864;23.360;2023-04-25T00:59:33;95042.63;;;11.99;100.00
29169;BME280;16219;42.864;23.360;2023-04-25T01:02:00;95036.84;;;11.94;100.00
29169;BME280;16219;42.864;23.360;2023-04-25T01:04:28;95027.44;;;11.96;100.00
29169;BME280;16219;42.864;23.360;2023-04-25T01:06:55;95007.00;;;11.81;100.00
29169;BME280;16219;42.864;23.360;2023-04-25T01:09:22;95020.53;;;11.80;100.00
29169;BME280;16219;42.864;23.360;2023-04-25T01:11:50;95017.63;;;11.69;100.00
29169;BME280;16219;42.864;23.360;2023-04-25T01:14:19;95012.38;;;11.57;100.00
29169;BME280;16219;42.864;23.360;2023-04-25T01:16:46;95013.41;;;11.68;100.00
29169;BME280;16219;42.864;23.360;2023-04-25T01:19:16;95019.56;;;11.72;100.00
29169;BME280;16219;42.864;23.360;2023-04-25T01:21:47;95015.84;;;11.73;100.00
29169;BME280;16219;42.864;23.360;2023-04-25T01:24:14;95021.56;;;11.75;100.00
29169;BME280;16219;42.864;23.360;2023-04-25T01:26:42;95009.66;;;11.81;100.00
29169;BME280;16219;42.864;23.360;2023-04-25T01:29:17;95007.00;;;11.81;100.00
29169;BME280;16219;42.864;23.360;2023-04-25T01:31:45;95016.06;;;11.68;100.00
29169;BME280;16219;42.864;23.360;2023-04-25T01:34:13;95011.91;;;11.55;100.00
29169;BME280;16219;42.864;23.360;2023-04-25T01:36:40;95013.03;;;11.54;100.00
29169;BME280;16219;42.864;23.360;2023-04-25T01:39:09;94990.09;;;11.30;100.00
29169;BME280;16219;42.864;23.360;2023-04-25T01:41:37;94999.44;;;11.39;100.00
29169;BME280;16219;42.864;23.360;2023-04-25T01:44:05;94990.00;;;11.26;100.00
29169;BME280;16219;42.864;23.360;2023-04-25T01:46:33;94989.69;;;11.15;100.00
29169;BME280;16219;42.864;23.360;2023-04-25T01:49:00;94986.50;;;11.22;100.00
29169;BME280;16219;42.864;23.360;2023-04-25T01:51:28;94994.31;;;11.18;100.00
29169;BME280;16219;42.864;23.360;2023-04-25T01:53:56;94984.16;;;11.20;100.00
29169;BME280;16219;42.864;23.360;2023-04-25T01:56:30;94991.78;;;11.22;100.00
29169;BME280;16219;42.864;23.360;2023-04-25T01:58:57;94997.47;;;11.24;100.00
29169;BME280;16219;42.864;23.360;2023-04-25T02:01:40;94994.84;;;11.24;100.00
29169;BME280;16219;42.864;23.360;2023-04-25T02:04:16;94993.31;;;11.23;100.00
29169;BME280;16219;42.864;23.360;2023-04-25T02:06:44;94999.47;;;11.27;100.00
29169;BME280;16219;42.864;23.360;2023-04-25T02:09:12;95002.53;;;11.29;100.00
29169;BME280;16219;42.864;23.360;2023-04-25T02:11:45;94993.94;;;11.32;100.00
29169;BME280;16219;42.864;23.360;2023-04-25T02:14:31;94992.66;;;11.14;100.00
29169;BME280;16219;42.864;23.360;2023-04-25T02:17:03;94992.47;;;10.94;100.00
29169;BME280;16219;42.864;23.360;2023-04-25T02:19:31;94987.84;;;10.91;100.00
29169;BME280;16219;42.864;23.360;2023-04-25T02:21:58;94975.09;;;10.93;100.00
29169;BME280;16219;42.864;23.360;2023-04-25T02:24:25;94984.28;;;11.12;100.00
29169;BME280;16219;42.864;23.360;2023-04-25T02:26:57;94979.00;;;11.24;100.00
29169;BME280;16219;42.864;23.360;2023-04-25T02:29:24;94980.34;;;11.18;100.00
29169;BME280;16219;42.864;23.360;2023-04-25T02:31:51;94971.41;;;11.22;100.00
29169;BME280;16219;42.864;23.360;2023-04-25T02:34:18;94965.38;;;11.22;100.00
29169;BME280;16219;42.864;23.360;2023-04-25T02:36:48;94961.97;;;11.21;100.00
29169;BME280;16219;42.864;23.360;2023-04-25T02:39:17;94961.84;;;11.18;100.00
29169;BME280;16219;42.864;23.360;2023-04-25T02:41:44;94970.34;;;11.11;100.00
29169;BME280;16219;42.864;23.360;2023-04-25T02:44:12;94964.97;;;10.95;100.00
29169;BME280;16219;42.864;23.360;2023-04-25T02:46:40;94966.31;;;10.89;100.00
29169;BME280;16219;42.864;23.360;2023-04-25T02:49:07;94959.16;;;10.90;100.00
29169;BME280;16219;42.864;23.360;2023-04-25T02:51:35;94960.25;;;11.01;100.00
29169;BME280;16219;42.864;23.360;2023-04-25T02:54:02;94958.91;;;11.07;100.00
29169;BME280;16219;42.864;23.360;2023-04-25T02:56:33;94965.06;;;11.11;100.00
29169;BME280;16219;42.864;23.360;2023-04-25T02:59:01;94958.47;;;11.05;100.00
29169;BME280;16219;42.864;23.360;2023-04-25T03:01:31;94958.91;;;11.07;100.00
29169;BME280;16219;42.864;23.360;2023-04-25T03:03:58;94955.50;;;11.07;100.00
29169;BME280;16219;42.864;23.360;2023-04-25T03:06:25;94960.13;;;10.97;100.00
29169;BME280;16219;42.864;23.360;2023-04-25T03:08:52;94967.59;;;10.95;100.00
29169;BME280;16219;42.864;23.360;2023-04-25T03:11:20;94972.00;;;10.91;100.00
29169;BME280;16219;42.864;23.360;2023-04-25T03:13:47;94960.38;;;10.92;100.00
29169;BME280;16219;42.864;23.360;2023-04-25T03:16:14;94962.31;;;10.95;100.00
29169;BME280;16219;42.864;23.360;2023-04-25T03:18:43;94964.66;;;10.97;100.00
29169;BME280;16219;42.864;23.360;2023-04-25T03:21:10;94965.53;;;10.89;100.00
29169;BME280;16219;42.864;23.360;2023-04-25T03:23:38;94965.00;;;10.83;100.00
29169;BME280;16219;42.864;23.360;2023-04-25T03:26:07;94969.41;;;10.79;100.00
29169;BME280;16219;42.864;23.360;2023-04-25T03:28:34;94963.56;;;10.61;100.00
29169;BME280;16219;42.864;23.360;2023-04-25T03:31:01;94950.38;;;10.61;100.00
29169;BME280;16219;42.864;23.360;2023-04-25T03:33:29;94954.88;;;10.73;100.00
29169;BME280;16219;42.864;23.360;2023-04-25T03:35:58;94951.34;;;10.81;100.00
29169;BME280;16219;42.864;23.360;2023-04-25T03:38:27;94950.25;;;10.70;100.00
29169;BME280;16219;42.864;23.360;2023-04-25T03:40:54;94950.69;;;10.72;100.00
29169;BME280;16219;42.864;23.360;2023-04-25T03:43:40;94960.91;;;10.73;100.00
29169;BME280;16219;42.864;23.360;2023-04-25T03:46:11;94953.34;;;10.72;100.00
29169;BME280;16219;42.864;23.360;2023-04-25T03:48:40;94948.28;;;10.67;100.00
29169;BME280;16219;42.864;23.360;2023-04-25T03:51:10;94957.63;;;10.76;100.00
29169;BME280;16219;42.864;23.360;2023-04-25T03:53:41;94954.44;;;10.83;100.00
29169;BME280;16219;42.864;23.360;2023-04-25T03:56:26;94959.16;;;10.90;100.00
29169;BME280;16219;42.864;23.360;2023-04-25T03:59:00;94947.16;;;10.92;100.00
29169;BME280;16219;42.864;23.360;2023-04-25T04:01:29;94954.41;;;10.95;100.00
29169;BME280;16219;42.864;23.360;2023-04-25T04:03:57;94964.41;;;11.02;100.00
29169;BME280;16219;42.864;23.360;2023-04-25T04:06:26;94968.03;;;11.10;100.00
29169;BME280;16219;42.864;23.360;2023-04-25T04:09:01;94970.56;;;11.06;100.00
29169;BME280;16219;42.864;23.360;2023-04-25T04:11:32;94968.47;;;10.99;100.00
29169;BME280;16219;42.864;23.360;2023-04-25T04:13:59;94970.69;;;10.97;100.00
29169;BME280;16219;42.864;23.360;2023-04-25T04:16:26;94968.28;;;10.92;100.00
29169;BME280;16219;42.864;23.360;2023-04-25T04:18:53;94977.50;;;10.98;100.00
29169;BME280;16219;42.864;23.360;2023-04-25T04:21:21;94969.69;;;11.14;100.00
29169;BME280;16219;42.864;23.360;2023-04-25T04:23:49;94960.63;;;11.27;100.00
29169;BME280;16219;42.864;23.360;2023-04-25T04:26:17;94969.06;;;11.33;100.00
29169;BME280;16219;42.864;23.360;2023-04-25T04:28:57;94957.41;;;11.34;100.00
29169;BME280;16219;42.864;23.360;2023-04-25T04:31:48;94957.00;;;11.20;100.00
29169;BME280;16219;42.864;23.360;2023-04-25T04:34:15;94972.41;;;11.30;100.00
29169;BME280;16219;42.864;23.360;2023-04-25T04:36:44;94970.06;;;11.29;100.00
29169;BME280;16219;42.864;23.360;2023-04-25T04:39:13;94961.84;;;11.30;100.00
29169;BME280;16219;42.864;23.360;2023-04-25T04:42:03;94973.59;;;11.20;100.00
29169;BME280;16219;42.864;23.360;2023-04-25T04:44:42;94971.09;;;11.12;100.00
29169;BME280;16219;42.864;23.360;2023-04-25T04:47:33;94967.00;;;11.26;100.00
29169;BME280;16219;42.864;23.360;2023-04-25T04:50:22;94978.53;;;11.34;100.00
29169;BME280;16219;42.864;23.360;2023-04-25T04:53:07;94974.97;;;11.42;100.00
29169;BME280;16219;42.864;23.360;2023-04-25T04:55:46;94982.69;;;11.47;100.00
29169;BME280;16219;42.864;23.360;2023-04-25T04:58:32;94988.34;;;11.62;100.00
29169;BME280;16219;42.864;23.360;2023-04-25T05:01:28;94987.47;;;11.58;100.00
29169;BME280;16219;42.864;23.360;2023-04-25T05:04:19;94984.81;;;11.70;100.00
29169;BME280;16219;42.864;23.360;2023-04-25T05:06:52;94990.59;;;11.75;100.00
29169;BME280;16219;42.864;23.360;2023-04-25T05:09:48;94993.00;;;11.81;100.00
29169;BME280;16219;42.864;23.360;2023-04-25T05:12:19;94983.41;;;11.88;100.00
29169;BME280;16219;42.864;23.360;2023-04-25T05:15:09;94992.22;;;11.92;100.00
29169;BME280;16219;42.864;23.360;2023-04-25T05:18:00;94991.41;;;12.04;100.00
29169;BME280;16219;42.864;23.360;2023-04-25T05:20:59;94989.25;;;12.10;100.00
29169;BME280;16219;42.864;23.360;2023-04-25T05:23:38;94983.72;;;12.15;100.00
29169;BME280;16219;42.864;23.360;2023-04-25T05:26:24;94981.78;;;12.12;100.00
29169;BME280;16219;42.864;23.360;2023-04-25T05:28:57;94988.19;;;12.26;100.00
29169;BME280;16219;42.864;23.360;2023-04-25T05:31:35;94989.47;;;12.33;100.00
29169;BME280;16219;42.864;23.360;2023-04-25T05:34:08;94988.44;;;12.37;100.00
29169;BME280;16219;42.864;23.360;2023-04-25T05:36:44;94994.59;;;12.41;100.00
29169;BME280;16219;42.864;23.360;2023-04-25T05:39:14;94985.03;;;12.52;100.00
29169;BME280;16219;42.864;23.360;2023-04-25T05:42:00;94985.13;;;12.56;100.00
29169;BME280;16219;42.864;23.360;2023-04-25T05:44:48;94983.56;;;12.39;100.00
29169;BME280;16219;42.864;23.360;2023-04-25T05:47:28;94985.19;;;12.44;100.00
29169;BME280;16219;42.864;23.360;2023-04-25T05:50:07;94976.09;;;12.41;100.00
29169;BME280;16219;42.864;23.360;2023-04-25T05:52:53;94982.81;;;12.39;100.00
29169;BME280;16219;42.864;23.360;2023-04-25T05:55:29;94979.41;;;12.38;100.00
29169;BME280;16219;42.864;23.360;2023-04-25T05:57:58;94975.22;;;12.37;100.00
29169;BME280;16219;42.864;23.360;2023-04-25T06:00:27;94985.63;;;12.30;100.00
29169;BME280;16219;42.864;23.360;2023-04-25T06:02:54;94987.69;;;12.37;100.00
29169;BME280;16219;42.864;23.360;2023-04-25T06:05:22;94988.38;;;12.49;100.00
29169;BME280;16219;42.864;23.360;2023-04-25T06:07:49;94979.50;;;12.58;100.00
29169;BME280;16219;42.864;23.360;2023-04-25T06:10:16;94980.94;;;12.71;100.00
29169;BME280;16219;42.864;23.360;2023-04-25T06:12:44;94983.41;;;12.80;100.00
29169;BME280;16219;42.864;23.360;2023-04-25T06:15:12;94975.69;;;12.90;100.00
29169;BME280;16219;42.864;23.360;2023-04-25T06:17:40;94971.94;;;12.91;100.00
29169;BME280;16219;42.864;23.360;2023-04-25T06:20:08;94978.91;;;12.99;100.00
29169;BME280;16219;42.864;23.360;2023-04-25T06:22:35;94975.25;;;13.04;100.00
29169;BME280;16219;42.864;23.360;2023-04-25T06:25:03;94978.59;;;13.01;100.00
29169;BME280;16219;42.864;23.360;2023-04-25T06:27:32;94977.56;;;13.06;100.00
29169;BME280;16219;42.864;23.360;2023-04-25T06:30:00;94981.38;;;13.08;100.00
29169;BME280;16219;42.864;23.360;2023-04-25T06:32:31;94979.75;;;13.04;100.00
29169;BME280;16219;42.864;23.360;2023-04-25T06:35:01;94979.34;;;13.01;100.00
29169;BME280;16219;42.864;23.360;2023-04-25T06:37:28;94973.63;;;12.99;100.00
29169;BME280;16219;42.864;23.360;2023-04-25T06:39:56;94981.03;;;13.10;100.00
29169;BME280;16219;42.864;23.360;2023-04-25T06:42:23;94975.91;;;13.17;100.00
29169;BME280;16219;42.864;23.360;2023-04-25T06:44:57;94978.88;;;13.31;100.00
29169;BME280;16219;42.864;23.360;2023-04-25T06:47:27;94978.41;;;13.45;100.00
29169;BME280;16219;42.864;23.360;2023-04-25T06:49:55;94982.94;;;13.64;100.00
29169;BME280;16219;42.864;23.360;2023-04-25T06:52:23;94982.94;;;13.83;100.00
29169;BME280;16219;42.864;23.360;2023-04-25T06:54:51;94989.31;;;14.01;100.00
29169;BME280;16219;42.864;23.360;2023-04-25T06:57:32;94982.69;;;14.11;100.00
29169;BME280;16219;42.864;23.360;2023-04-25T07:00:14;94973.69;;;14.16;100.00
29169;BME280;16219;42.864;23.360;2023-04-25T07:02:53;94977.69;;;14.29;100.00
29169;BME280;16219;42.864;23.360;2023-04-25T07:05:20;94981.47;;;14.28;100.00
29169;BME280;16219;42.864;23.360;2023-04-25T07:07:49;94980.81;;;14.35;100.00
29169;BME280;16219;42.864;23.360;2023-04-25T07:10:16;94972.22;;;14.41;100.00
29169;BME280;16219;42.864;23.360;2023-04-25T07:12:42;94976.75;;;14.64;100.00
29169;BME280;16219;42.864;23.360;2023-04-25T07:15:10;94971.06;;;14.88;100.00
29169;BME280;16219;42.864;23.360;2023-04-25T07:17:39;94984.25;;;15.08;100.00
29169;BME280;16219;42.864;23.360;2023-04-25T07:20:07;94980.84;;;15.37;100.00
29169;BME280;16219;42.864;23.360;2023-04-25T07:22:35;94978.38;;;15.82;100.00
29169;BME280;16219;42.864;23.360;2023-04-25T07:25:06;94977.84;;;16.03;100.00
29169;BME280;16219;42.864;23.360;2023-04-25T07:27:34;94978.06;;;16.24;100.00
29169;BME280;16219;42.864;23.360;2023-04-25T07:30:27;94983.56;;;16.45;100.00
29169;BME280;16219;42.864;23.360;2023-04-25T07:32:54;94981.75;;;16.53;100.00
29169;BME280;16219;42.864;23.360;2023-04-25T07:35:22;94976.31;;;16.42;100.00
29169;BME280;16219;42.864;23.360;2023-04-25T07:37:49;94978.97;;;16.42;100.00
29169;BME280;16219;42.864;23.360;2023-04-25T07:40:20;94985.31;;;16.31;100.00
29169;BME280;16219;42.864;23.360;2023-04-25T07:42:54;94978.34;;;16.15;100.00
29169;BME280;16219;42.864;23.360;2023-04-25T07:45:28;94982.28;;;15.91;100.00
29169;BME280;16219;42.864;23.360;2023-04-25T07:47:55;94988.38;;;15.32;100.00
29169;BME280;16219;42.864;23.360;2023-04-25T07:50:23;94982.47;;;14.89;100.00
29169;BME280;16219;42.864;23.360;2023-04-25T07:52:50;94980.75;;;14.31;100.00
29169;BME280;16219;42.864;23.360;2023-04-25T07:55:25;94985.53;;;14.22;100.00
29169;BME280;16219;42.864;23.360;2023-04-25T07:58:19;94995.59;;;14.13;100.00
29169;BME280;16219;42.864;23.360;2023-04-25T08:00:49;94997.13;;;14.14;100.00
29169;BME280;16219;42.864;23.360;2023-04-25T08:03:34;94988.91;;;14.19;100.00
29169;BME280;16219;42.864;23.360;2023-04-25T08:06:05;94982.69;;;14.54;100.00
29169;BME280;16219;42.864;23.360;2023-04-25T08:08:38;94979.34;;;14.83;100.00
29169;BME280;16219;42.864;23.360;2023-04-25T08:11:08;94980.00;;;15.03;100.00
29169;BME280;16219;42.864;23.360;2023-04-25T08:13:35;94988.50;;;15.12;100.00
29169;BME280;16219;42.864;23.360;2023-04-25T08:16:03;94989.25;;;15.13;100.00
29169;BME280;16219;42.864;23.360;2023-04-25T08:18:30;94982.19;;;15.24;100.00
29169;BME280;16219;42.864;23.360;2023-04-25T08:20:57;94982.28;;;15.31;100.00
29169;BME280;16219;42.864;23.360;2023-04-25T08:23:25;94986.91;;;15.34;100.00
29169;BME280;16219;42.864;23.360;2023-04-25T08:26:01;94978.69;;;15.46;100.00
29169;BME280;16219;42.864;23.360;2023-04-25T08:28:30;94978.78;;;15.54;100.00
29169;BME280;16219;42.864;23.360;2023-04-25T08:30:59;94972.22;;;15.74;100.00
29169;BME280;16219;42.864;23.360;2023-04-25T08:33:33;94968.16;;;15.87;100.00
29169;BME280;16219;42.864;23.360;2023-04-25T08:36:19;94968.81;;;16.11;100.00
29169;BME280;16219;42.864;23.360;2023-04-25T08:38:46;94955.00;;;16.42;100.00
29169;BME280;16219;42.864;23.360;2023-04-25T08:41:17;94966.25;;;16.66;100.00
29169;BME280;16219;42.864;23.360;2023-04-25T08:43:49;94964.19;;;16.93;100.00
29169;BME280;16219;42.864;23.360;2023-04-25T08:46:18;94961.66;;;17.18;100.00
29169;BME280;16219;42.864;23.360;2023-04-25T08:49:02;94959.44;;;17.27;100.00
29169;BME280;16219;42.864;23.360;2023-04-25T08:51:31;94951.47;;;17.34;100.00
29169;BME280;16219;42.864;23.360;2023-04-25T08:54:08;94953.06;;;17.46;100.00
29169;BME280;16219;42.864;23.360;2023-04-25T08:56:37;94948.56;;;17.64;100.00
29169;BME280;16219;42.864;23.360;2023-04-25T08:59:07;94948.66;;;17.96;100.00
29169;BME280;16219;42.864;23.360;2023-04-25T09:01:36;94958.25;;;18.26;100.00
29169;BME280;16219;42.864;23.360;2023-04-25T09:04:03;94959.44;;;18.32;100.00
29169;BME280;16219;42.864;23.360;2023-04-25T09:06:30;94942.66;;;18.49;100.00
29169;BME280;16219;42.864;23.360;2023-04-25T09:09:02;94951.03;;;18.23;100.00
29169;BME280;16219;42.864;23.360;2023-04-25T09:11:30;94947.91;;;17.85;100.00
29169;BME280;16219;42.864;23.360;2023-04-25T09:14:12;94946.38;;;17.91;100.00
29169;BME280;16219;42.864;23.360;2023-04-25T09:17:01;94937.28;;;18.42;100.00
29169;BME280;16219;42.864;23.360;2023-04-25T09:19:44;94929.66;;;18.37;100.00
29169;BME280;16219;42.864;23.360;2023-04-25T09:22:19;94938.41;;;18.02;100.00
29169;BME280;16219;42.864;23.360;2023-04-25T09:24:48;94956.13;;;17.52;100.00
29169;BME280;16219;42.864;23.360;2023-04-25T09:27:20;94953.72;;;17.25;100.00
29169;BME280;16219;42.864;23.360;2023-04-25T09:29:58;94949.03;;;17.04;100.00
29169;BME280;16219;42.864;23.360;2023-04-25T09:32:29;94955.34;;;16.82;100.00
29169;BME280;16219;42.864;23.360;2023-04-25T09:34:57;94957.13;;;16.67;100.00
29169;BME280;16219;42.864;23.360;2023-04-25T09:37:27;94957.78;;;16.53;100.00
29169;BME280;16219;42.864;23.360;2023-04-25T09:40:14;94942.47;;;16.94;100.00
29169;BME280;16219;42.864;23.360;2023-04-25T09:42:53;94940.78;;;17.31;100.00
29169;BME280;16219;42.864;23.360;2023-04-25T09:45:22;94934.00;;;17.47;100.00
29169;BME280;16219;42.864;23.360;2023-04-25T09:47:49;94929.97;;;17.82;100.00
29169;BME280;16219;42.864;23.360;2023-04-25T09:50:23;94916.69;;;18.21;100.00
29169;BME280;16219;42.864;23.360;2023-04-25T09:53:05;94917.47;;;18.58;100.00
29169;BME280;16219;42.864;23.360;2023-04-25T09:56:00;94906.00;;;18.68;98.72
29169;BME280;16219;42.864;23.360;2023-04-25T09:58:30;94910.22;;;18.83;89.01
29169;BME280;16219;42.864;23.360;2023-04-25T10:01:00;94914.34;;;19.13;85.12
29169;BME280;16219;42.864;23.360;2023-04-25T10:03:38;94914.72;;;19.15;84.75
29169;BME280;16219;42.864;23.360;2023-04-25T10:06:19;94892.19;;;19.16;81.81
29169;BME280;16219;42.864;23.360;2023-04-25T10:08:50;94889.41;;;19.41;92.04
29169;BME280;16219;42.864;23.360;2023-04-25T10:11:19;94893.13;;;19.72;78.29
29169;BME280;16219;42.864;23.360;2023-04-25T10:13:48;94899.56;;;19.85;84.58
29169;BME280;16219;42.864;23.360;2023-04-25T10:16:17;94897.50;;;19.27;69.98
29169;BME280;16219;42.864;23.360;2023-04-25T10:18:44;94885.81;;;18.78;70.19
29169;BME280;16219;42.864;23.360;2023-04-25T10:21:12;94901.44;;;18.29;67.10
29169;BME280;16219;42.864;23.360;2023-04-25T10:23:40;94914.34;;;17.91;74.53
29169;BME280;16219;42.864;23.360;2023-04-25T10:26:07;94970.06;;;17.16;80.02
29169;BME280;16219;42.864;23.360;2023-04-25T10:28:55;94972.19;;;16.08;86.43
29169;BME280;16219;42.864;23.360;2023-04-25T10:31:24;94982.25;;;15.28;97.17
29169;BME280;16219;42.864;23.360;2023-04-25T10:33:51;94983.53;;;14.38;100.00
29169;BME280;16219;42.864;23.360;2023-04-25T10:36:19;94986.00;;;13.85;100.00
29169;BME280;16219;42.864;23.360;2023-04-25T10:38:49;94987.81;;;13.62;100.00
29169;BME280;16219;42.864;23.360;2023-04-25T10:41:18;94985.91;;;13.08;100.00
29169;BME280;16219;42.864;23.360;2023-04-25T10:43:46;94979.38;;;12.70;100.00
29169;BME280;16219;42.864;23.360;2023-04-25T10:46:18;94980.78;;;12.32;100.00
29169;BME280;16219;42.864;23.360;2023-04-25T10:48:48;94955.59;;;12.07;100.00
29169;BME280;16219;42.864;23.360;2023-04-25T10:51:17;94969.53;;;11.91;100.00
29169;BME280;16219;42.864;23.360;2023-04-25T10:53:45;94948.69;;;11.74;100.00
29169;BME280;16219;42.864;23.360;2023-04-25T10:56:12;94949.94;;;11.80;100.00
29169;BME280;16219;42.864;23.360;2023-04-25T10:58:43;94938.28;;;12.25;100.00
29169;BME280;16219;42.864;23.360;2023-04-25T11:01:12;94934.56;;;12.77;100.00
29169;BME280;16219;42.864;23.360;2023-04-25T11:03:41;94924.66;;;13.09;100.00
29169;BME280;16219;42.864;23.360;2023-04-25T11:06:18;94915.78;;;13.37;100.00
29169;BME280;16219;42.864;23.360;2023-04-25T11:08:48;94912.00;;;13.77;100.00
29169;BME280;16219;42.864;23.360;2023-04-25T11:11:16;94907.41;;;13.96;100.00
29169;BME280;16219;42.864;23.360;2023-04-25T11:13:43;94902.88;;;14.20;100.00
29169;BME280;16219;42.864;23.360;2023-04-25T11:16:10;94908.44;;;14.61;100.00
29169;BME280;16219;42.864;23.360;2023-04-25T11:18:37;94905.78;;;15.14;100.00
29169;BME280;16219;42.864;23.360;2023-04-25T11:21:04;94896.22;;;15.39;100.00
29169;BME280;16219;42.864;23.360;2023-04-25T11:23:34;94898.38;;;15.64;100.00
29169;BME280;16219;42.864;23.360;2023-04-25T11:26:01;94903.44;;;15.72;100.00
29169;BME280;16219;42.864;23.360;2023-04-25T11:28:45;94901.03;;;15.97;100.00
29169;BME280;16219;42.864;23.360;2023-04-25T11:31:12;94899.34;;;16.23;100.00
29169;BME280;16219;42.864;23.360;2023-04-25T11:33:39;94900.53;;;16.29;100.00
29169;BME280;16219;42.864;23.360;2023-04-25T11:36:08;94884.00;;;16.61;100.00
29169;BME280;16219;42.864;23.360;2023-04-25T11:38:37;94889.56;;;16.93;100.00
29169;BME280;16219;42.864;23.360;2023-04-25T11:41:05;94888.19;;;17.17;100.00
29169;BME280;16219;42.864;23.360;2023-04-25T11:43:32;94887.47;;;17.31;100.00
29169;BME280;16219;42.864;23.360;2023-04-25T11:46:00;94883.28;;;17.30;90.67
29169;BME280;16219;42.864;23.360;2023-04-25T11:48:27;94879.50;;;17.41;94.12
29169;BME280;16219;42.864;23.360;2023-04-25T11:50:55;94875.38;;;17.62;93.46
29169;BME280;16219;42.864;23.360;2023-04-25T11:53:22;94869.75;;;17.81;97.71
29169;BME280;16219;42.864;23.360;2023-04-25T11:55:52;94859.47;;;17.90;96.81
29169;BME280;16219;42.864;23.360;2023-04-25T11:58:18;94851.47;;;17.97;85.59
29169;BME280;16219;42.864;23.360;2023-04-25T12:00:46;94851.84;;;18.28;100.00
29169;BME280;16219;42.864;23.360;2023-04-25T12:03:13;94847.25;;;18.46;88.35
29169;BME280;16219;42.864;23.360;2023-04-25T12:05:40;94848.00;;;18.51;88.78
29169;BME280;16219;42.864;23.360;2023-04-25T12:08:10;94857.19;;;17.99;85.42
29169;BME280;16219;42.864;23.360;2023-04-25T12:10:39;94862.00;;;17.44;92.91
29169;BME280;16219;42.864;23.360;2023-04-25T12:13:21;94857.81;;;17.43;100.00
29169;BME280;16219;42.864;23.360;2023-04-25T12:15:49;94866.09;;;17.13;85.05
29169;BME280;16219;42.864;23.360;2023-04-25T12:18:19;94873.38;;;16.57;95.29
29169;BME280;16219;42.864;23.360;2023-04-25T12:20:48;94885.53;;;16.07;96.57
29169;BME280;16219;42.864;23.360;2023-04-25T12:23:15;94904.00;;;15.59;100.00
29169;BME280;16219;42.864;23.360;2023-04-25T12:25:43;94912.84;;;15.03;100.00
29169;BME280;16219;42.864;23.360;2023-04-25T12:28:14;94896.06;;;14.45;100.00
29169;BME280;16219;42.864;23.360;2023-04-25T12:30:56;94916.91;;;13.97;100.00
29169;BME280;16219;42.864;23.360;2023-04-25T12:33:25;94911.56;;;13.74;100.00
29169;BME280;16219;42.864;23.360;2023-04-25T12:35:53;94923.66;;;13.53;100.00
29169;BME280;16219;42.864;23.360;2023-04-25T12:38:27;94922.47;;;13.50;100.00
29169;BME280;16219;42.864;23.360;2023-04-25T12:40:54;94918.94;;;13.42;100.00
29169;BME280;16219;42.864;23.360;2023-04-25T12:43:22;94913.69;;;13.46;100.00
29169;BME280;16219;42.864;23.360;2023-04-25T12:45:49;94912.72;;;13.54;100.00
29169;BME280;16219;42.864;23.360;2023-04-25T12:48:18;94905.88;;;13.72;100.00
29169;BME280;16219;42.864;23.360;2023-04-25T12:50:46;94900.34;;;13.81;100.00
29169;BME280;16219;42.864;23.360;2023-04-25T12:53:15;94898.22;;;13.90;100.00
29169;BME280;16219;42.864;23.360;2023-04-25T12:55:42;94906.00;;;14.03;100.00
29169;BME280;16219;42.864;23.360;2023-04-25T12:58:11;94896.38;;;14.40;100.00
29169;BME280;16219;42.864;23.360;2023-04-25T13:00:38;94894.16;;;14.69;100.00